Share

Whitman, NE (69366)

Thedford (KTIF) Elev 2927 ft | 41.96 °N, 100.57 °W | Change Station

Current weather conditions updated 13 minutes ago

Mostly Cloudy
Mostly Cloudy
51 °F
Feels Like 51 °F
N
14
Wind Variable Wind from South
Gusts 21 mph
Sunrise 6:02 AM
Sunset 7:29 PM
Moon Waning Gibbous

Today is forecast to be nearly the same temperature as yesterday.

Pressure 30.19 in
Visibility 10.0 miles
Clouds Mostly Cloudy 9500 ft
Dew Point 23 °F
Humidity 33%
Rainfall 0.00 in
Snow Depth Not available.
UV 5 out of 16
Pollen 8.60 out of 12
Air Quality Not available.
Flu Activity Sporadic
METAR KTIF 172015Z AUTO 17012G18KT 10SM BKN095 11/M05 A3019 RMK AO2 T01081050

More Conditions Fewer Conditions

Pressure 30.19 in
Visibility 10.0 miles
Clouds Mostly Cloudy 9500 ft
Dew Point 23 °F
Humidity 33%
Rainfall 0.00 in
Snow Depth Not available.
UV 5 out of 16
Pollen 8.60 out of 12
Air Quality Not available.
Flu Activity Sporadic
METAR KTIF 172015Z AUTO 17012G18KT 10SM BKN095 11/M05 A3019 RMK AO2 T01081050

More Conditions Fewer Conditions

10-Day Forecast

Almanac

Astronomy

Apr. 17, 2014 Rise Set
Actual Time 6:02 AM MDT 7:29 PM MDT
Civil Twilight 5:33 AM MDT 7:58 PM MDT
Nautical Twilight 4:58 AM MDT 8:33 PM MDT
Astronomical Twilight 4:21 AM MDT 9:11 PM MDT
Moon 10:19 PM MDT 7:34 AM MDT
Length of Visible Light 14h 25m
Length of Day
13h 26m
Tomorrow will be 2m 40s longer.
Waning Gibbous, 93% of the Moon is Illuminated
Today
Waning Gibbous
Apr 22
Last Quarter
Apr 29
New
May 6
First Quarter
May 14
Full

Today's Extremes

State Highs State Lows

Community

  • Morning Light
    Morning Light
  • New Day
    New Day
  • Lake Michigan Sunrise
    Lake Michigan Sunrise
  • sunset from izmir, narlıdere
    sunset from izmir, narlıdere
  • oregon cherry
    oregon cherry

WunderPhotos

Upload Photos

1,702,119 photos uploaded!

Nearby

Snow Depth

Station Depth Elevation
No new snow has been reported.

Coastal Water Temperatures

Place Temperature
No Stations Reporting

Earthquake Activity

City Distance Mag. Time & Date
No recent earthquake activity has been reported nearby.
Minimum magnitude displayed is 2.5.

Nearby Weather Stations

Station Location Temp. Dew Point Humidity Wind Precip. Elev Updated Type
CRN GUDMUNDSEN SAND LAB WHITMAN 5ENE NE , Whitman, NE - - 50% North  at  12 mph 0.00 in / hr 3740 ft 12:00 PM MDT MADIS

Show More Stations Show Fewer Stations

What do you think?

We're not finished. Please let us know what you like, what you don't like, and what you are still missing.